sensor_id;sensor_type;location;lat;lon;timestamp;P1;durP1;ratioP1;P2;durP2;ratioP2
13866;SDS011;7003;46.982;15.248;2023-12-20T00:00:49;0.70;;;0.70;;
13866;SDS011;7003;46.982;15.248;2023-12-20T00:03:17;1.73;;;1.47;;
13866;SDS011;7003;46.982;15.248;2023-12-20T00:05:45;2.07;;;1.97;;
13866;SDS011;7003;46.982;15.248;2023-12-20T00:08:12;1.70;;;1.10;;
13866;SDS011;7003;46.982;15.248;2023-12-20T00:10:41;1.77;;;1.17;;
13866;SDS011;7003;46.982;15.248;2023-12-20T00:13:09;2.07;;;0.93;;
13866;SDS011;7003;46.982;15.248;2023-12-20T00:15:45;2.67;;;1.97;;
13866;SDS011;7003;46.982;15.248;2023-12-20T00:18:13;1.40;;;1.20;;
13866;SDS011;7003;46.982;15.248;2023-12-20T00:20:40;2.70;;;1.40;;
13866;SDS011;7003;46.982;15.248;2023-12-20T00:23:08;4.80;;;2.00;;
13866;SDS011;7003;46.982;15.248;2023-12-20T00:25:35;1.67;;;1.57;;
13866;SDS011;7003;46.982;15.248;2023-12-20T00:28:04;0.90;;;0.90;;
13866;SDS011;7003;46.982;15.248;2023-12-20T00:30:34;1.97;;;1.47;;
13866;SDS011;7003;46.982;15.248;2023-12-20T00:33:04;1.13;;;1.07;;
13866;SDS011;7003;46.982;15.248;2023-12-20T00:35:32;1.47;;;1.40;;
13866;SDS011;7003;46.982;15.248;2023-12-20T00:37:59;2.27;;;1.23;;
13866;SDS011;7003;46.982;15.248;2023-12-20T00:40:27;1.03;;;0.93;;
13866;SDS011;7003;46.982;15.248;2023-12-20T00:42:56;1.10;;;1.03;;
13866;SDS011;7003;46.982;15.248;2023-12-20T00:45:25;1.57;;;1.30;;
13866;SDS011;7003;46.982;15.248;2023-12-20T00:47:53;1.23;;;1.13;;
13866;SDS011;7003;46.982;15.248;2023-12-20T00:50:20;1.73;;;1.53;;
13866;SDS011;7003;46.982;15.248;2023-12-20T00:52:48;2.17;;;1.67;;
13866;SDS011;7003;46.982;15.248;2023-12-20T00:55:15;3.03;;;2.67;;
13866;SDS011;7003;46.982;15.248;2023-12-20T00:57:43;2.60;;;1.37;;
13866;SDS011;7003;46.982;15.248;2023-12-20T01:00:13;2.53;;;1.73;;
13866;SDS011;7003;46.982;15.248;2023-12-20T01:02:45;1.53;;;1.43;;
13866;SDS011;7003;46.982;15.248;2023-12-20T01:05:18;1.60;;;1.40;;
13866;SDS011;7003;46.982;15.248;2023-12-20T01:07:55;4.47;;;1.23;;
13866;SDS011;7003;46.982;15.248;2023-12-20T01:10:31;0.93;;;0.87;;
13866;SDS011;7003;46.982;15.248;2023-12-20T01:13:00;1.47;;;1.30;;
13866;SDS011;7003;46.982;15.248;2023-12-20T01:15:27;3.47;;;1.73;;
13866;SDS011;7003;46.982;15.248;2023-12-20T01:18:11;0.83;;;0.83;;
13866;SDS011;7003;46.982;15.248;2023-12-20T01:20:43;2.33;;;1.30;;
13866;SDS011;7003;46.982;15.248;2023-12-20T01:23:12;1.13;;;1.00;;
13866;SDS011;7003;46.982;15.248;2023-12-20T01:25:46;1.60;;;0.93;;
13866;SDS011;7003;46.982;15.248;2023-12-20T01:28:15;0.63;;;0.43;;
13866;SDS011;7003;46.982;15.248;2023-12-20T01:30:45;3.83;;;1.30;;
13866;SDS011;7003;46.982;15.248;2023-12-20T01:33:15;1.87;;;0.87;;
13866;SDS011;7003;46.982;15.248;2023-12-20T01:35:45;3.97;;;0.90;;
13866;SDS011;7003;46.982;15.248;2023-12-20T01:38:13;1.83;;;1.30;;
13866;SDS011;7003;46.982;15.248;2023-12-20T01:40:48;1.73;;;1.00;;
13866;SDS011;7003;46.982;15.248;2023-12-20T01:43:21;2.97;;;1.37;;
13866;SDS011;7003;46.982;15.248;2023-12-20T01:45:51;1.53;;;1.00;;
13866;SDS011;7003;46.982;15.248;2023-12-20T01:48:25;1.53;;;0.83;;
13866;SDS011;7003;46.982;15.248;2023-12-20T01:51:00;0.50;;;0.50;;
13866;SDS011;7003;46.982;15.248;2023-12-20T01:53:37;2.17;;;0.93;;
13866;SDS011;7003;46.982;15.248;2023-12-20T01:56:08;2.27;;;0.80;;
13866;SDS011;7003;46.982;15.248;2023-12-20T01:58:39;0.60;;;0.60;;
13866;SDS011;7003;46.982;15.248;2023-12-20T02:01:11;0.73;;;0.73;;
13866;SDS011;7003;46.982;15.248;2023-12-20T02:03:42;0.53;;;0.53;;
13866;SDS011;7003;46.982;15.248;2023-12-20T02:06:13;0.37;;;0.33;;
13866;SDS011;7003;46.982;15.248;2023-12-20T02:08:40;0.43;;;0.40;;
13866;SDS011;7003;46.982;15.248;2023-12-20T02:11:10;0.70;;;0.70;;
13866;SDS011;7003;46.982;15.248;2023-12-20T02:13:41;1.90;;;1.13;;
13866;SDS011;7003;46.982;15.248;2023-12-20T02:16:11;0.83;;;0.83;;
13866;SDS011;7003;46.982;15.248;2023-12-20T02:18:38;0.33;;;0.33;;
13866;SDS011;7003;46.982;15.248;2023-12-20T02:21:07;1.13;;;1.10;;
13866;SDS011;7003;46.982;15.248;2023-12-20T02:23:40;0.60;;;0.60;;
13866;SDS011;7003;46.982;15.248;2023-12-20T02:26:11;0.60;;;0.60;;
13866;SDS011;7003;46.982;15.248;2023-12-20T02:28:42;0.67;;;0.67;;
13866;SDS011;7003;46.982;15.248;2023-12-20T02:31:10;0.57;;;0.57;;
13866;SDS011;7003;46.982;15.248;2023-12-20T02:33:38;1.30;;;0.67;;
13866;SDS011;7003;46.982;15.248;2023-12-20T02:36:07;0.70;;;0.50;;
13866;SDS011;7003;46.982;15.248;2023-12-20T02:38:37;3.23;;;0.40;;
13866;SDS011;7003;46.982;15.248;2023-12-20T02:41:09;0.77;;;0.77;;
13866;SDS011;7003;46.982;15.248;2023-12-20T02:43:38;0.70;;;0.70;;
13866;SDS011;7003;46.982;15.248;2023-12-20T02:46:08;1.27;;;1.13;;
13866;SDS011;7003;46.982;15.248;2023-12-20T02:48:36;1.30;;;0.43;;
13866;SDS011;7003;46.982;15.248;2023-12-20T02:51:03;0.50;;;0.50;;
13866;SDS011;7003;46.982;15.248;2023-12-20T02:53:31;0.63;;;0.63;;
13866;SDS011;7003;46.982;15.248;2023-12-20T02:55:58;1.07;;;0.70;;
13866;SDS011;7003;46.982;15.248;2023-12-20T02:58:28;2.13;;;0.67;;
13866;SDS011;7003;46.982;15.248;2023-12-20T03:00:55;1.40;;;0.80;;
13866;SDS011;7003;46.982;15.248;2023-12-20T03:03:25;1.17;;;1.07;;
13866;SDS011;7003;46.982;15.248;2023-12-20T03:05:53;1.13;;;0.90;;
13866;SDS011;7003;46.982;15.248;2023-12-20T03:08:21;0.93;;;0.93;;
13866;SDS011;7003;46.982;15.248;2023-12-20T03:10:48;0.17;;;0.17;;
13866;SDS011;7003;46.982;15.248;2023-12-20T03:13:16;1.43;;;0.77;;
13866;SDS011;7003;46.982;15.248;2023-12-20T03:15:45;2.10;;;1.43;;
13866;SDS011;7003;46.982;15.248;2023-12-20T03:18:14;1.03;;;0.77;;
13866;SDS011;7003;46.982;15.248;2023-12-20T03:20:56;3.30;;;1.13;;
13866;SDS011;7003;46.982;15.248;2023-12-20T03:23:24;1.80;;;1.57;;
13866;SDS011;7003;46.982;15.248;2023-12-20T03:25:52;0.47;;;0.47;;
13866;SDS011;7003;46.982;15.248;2023-12-20T03:28:22;2.00;;;1.03;;
13866;SDS011;7003;46.982;15.248;2023-12-20T03:30:51;3.20;;;1.23;;
13866;SDS011;7003;46.982;15.248;2023-12-20T03:33:19;1.43;;;1.33;;
13866;SDS011;7003;46.982;15.248;2023-12-20T03:35:47;1.00;;;0.63;;
13866;SDS011;7003;46.982;15.248;2023-12-20T03:38:16;0.60;;;0.57;;
13866;SDS011;7003;46.982;15.248;2023-12-20T03:40:44;1.03;;;0.93;;
13866;SDS011;7003;46.982;15.248;2023-12-20T03:43:12;2.00;;;1.40;;
13866;SDS011;7003;46.982;15.248;2023-12-20T03:45:39;2.03;;;1.60;;
13866;SDS011;7003;46.982;15.248;2023-12-20T03:48:08;1.27;;;0.83;;
13866;SDS011;7003;46.982;15.248;2023-12-20T03:50:36;4.20;;;1.60;;
13866;SDS011;7003;46.982;15.248;2023-12-20T03:53:06;1.33;;;1.03;;
13866;SDS011;7003;46.982;15.248;2023-12-20T03:55:34;1.30;;;1.20;;
13866;SDS011;7003;46.982;15.248;2023-12-20T03:58:02;1.77;;;1.50;;
13866;SDS011;7003;46.982;15.248;2023-12-20T04:00:33;1.27;;;0.93;;
13866;SDS011;7003;46.982;15.248;2023-12-20T04:03:10;0.50;;;0.43;;
13866;SDS011;7003;46.982;15.248;2023-12-20T04:05:46;0.60;;;0.50;;
13866;SDS011;7003;46.982;15.248;2023-12-20T04:08:14;1.07;;;1.03;;
13866;SDS011;7003;46.982;15.248;2023-12-20T04:10:44;1.13;;;1.03;;
13866;SDS011;7003;46.982;15.248;2023-12-20T04:13:11;2.93;;;0.70;;
13866;SDS011;7003;46.982;15.248;2023-12-20T04:15:39;1.30;;;0.53;;
13866;SDS011;7003;46.982;15.248;2023-12-20T04:18:08;0.87;;;0.87;;
13866;SDS011;7003;46.982;15.248;2023-12-20T04:20:35;2.10;;;1.63;;
13866;SDS011;7003;46.982;15.248;2023-12-20T04:23:05;2.37;;;1.33;;
13866;SDS011;7003;46.982;15.248;2023-12-20T04:25:33;2.10;;;1.10;;
13866;SDS011;7003;46.982;15.248;2023-12-20T04:28:00;1.57;;;1.23;;
13866;SDS011;7003;46.982;15.248;2023-12-20T04:30:30;0.53;;;0.53;;
13866;SDS011;7003;46.982;15.248;2023-12-20T04:32:58;0.83;;;0.77;;
13866;SDS011;7003;46.982;15.248;2023-12-20T04:35:27;1.20;;;0.97;;
13866;SDS011;7003;46.982;15.248;2023-12-20T04:37:55;1.30;;;1.20;;
13866;SDS011;7003;46.982;15.248;2023-12-20T04:40:22;0.77;;;0.77;;
13866;SDS011;7003;46.982;15.248;2023-12-20T04:42:50;0.37;;;0.37;;
13866;SDS011;7003;46.982;15.248;2023-12-20T04:45:18;1.43;;;0.70;;
13866;SDS011;7003;46.982;15.248;2023-12-20T04:47:45;1.00;;;0.97;;
13866;SDS011;7003;46.982;15.248;2023-12-20T04:50:15;0.90;;;0.87;;
13866;SDS011;7003;46.982;15.248;2023-12-20T04:52:45;1.00;;;0.40;;
13866;SDS011;7003;46.982;15.248;2023-12-20T04:55:15;0.80;;;0.80;;
13866;SDS011;7003;46.982;15.248;2023-12-20T04:57:42;0.40;;;0.40;;
13866;SDS011;7003;46.982;15.248;2023-12-20T05:00:10;1.60;;;1.20;;
13866;SDS011;7003;46.982;15.248;2023-12-20T05:02:41;0.90;;;0.90;;
13866;SDS011;7003;46.982;15.248;2023-12-20T05:05:09;0.97;;;0.97;;
13866;SDS011;7003;46.982;15.248;2023-12-20T05:07:37;1.80;;;1.70;;
13866;SDS011;7003;46.982;15.248;2023-12-20T05:10:07;0.80;;;0.80;;
13866;SDS011;7003;46.982;15.248;2023-12-20T05:12:35;0.50;;;0.50;;
13866;SDS011;7003;46.982;15.248;2023-12-20T05:15:03;12.00;;;7.10;;
13866;SDS011;7003;46.982;15.248;2023-12-20T05:17:34;16.57;;;5.20;;
13866;SDS011;7003;46.982;15.248;2023-12-20T05:20:02;8.03;;;4.53;;
13866;SDS011;7003;46.982;15.248;2023-12-20T05:22:30;4.97;;;2.67;;
13866;SDS011;7003;46.982;15.248;2023-12-20T05:24:58;0.40;;;0.40;;
13866;SDS011;7003;46.982;15.248;2023-12-20T05:27:27;1.33;;;0.97;;
13866;SDS011;7003;46.982;15.248;2023-12-20T05:29:55;0.77;;;0.60;;
13866;SDS011;7003;46.982;15.248;2023-12-20T05:32:23;0.40;;;0.40;;
13866;SDS011;7003;46.982;15.248;2023-12-20T05:34:51;0.70;;;0.63;;
13866;SDS011;7003;46.982;15.248;2023-12-20T05:37:19;2.20;;;1.40;;
13866;SDS011;7003;46.982;15.248;2023-12-20T05:39:50;0.73;;;0.73;;
13866;SDS011;7003;46.982;15.248;2023-12-20T05:42:18;2.23;;;0.77;;
13866;SDS011;7003;46.982;15.248;2023-12-20T05:44:49;1.13;;;0.60;;
13866;SDS011;7003;46.982;15.248;2023-12-20T05:47:18;1.53;;;0.97;;
13866;SDS011;7003;46.982;15.248;2023-12-20T05:49:46;1.60;;;0.90;;
13866;SDS011;7003;46.982;15.248;2023-12-20T05:52:13;1.20;;;0.97;;
13866;SDS011;7003;46.982;15.248;2023-12-20T05:54:41;0.80;;;0.80;;
13866;SDS011;7003;46.982;15.248;2023-12-20T05:57:11;0.40;;;0.40;;
13866;SDS011;7003;46.982;15.248;2023-12-20T05:59:49;1.00;;;0.90;;
13866;SDS011;7003;46.982;15.248;2023-12-20T06:02:27;0.27;;;0.27;;
13866;SDS011;7003;46.982;15.248;2023-12-20T06:05:10;0.70;;;0.43;;
13866;SDS011;7003;46.982;15.248;2023-12-20T06:07:44;0.77;;;0.77;;
13866;SDS011;7003;46.982;15.248;2023-12-20T06:10:27;1.20;;;1.10;;
13866;SDS011;7003;46.982;15.248;2023-12-20T06:12:58;2.50;;;1.53;;
13866;SDS011;7003;46.982;15.248;2023-12-20T06:15:29;0.93;;;0.93;;
13866;SDS011;7003;46.982;15.248;2023-12-20T06:17:58;0.20;;;0.20;;
13866;SDS011;7003;46.982;15.248;2023-12-20T06:20:26;1.63;;;1.07;;
13866;SDS011;7003;46.982;15.248;2023-12-20T06:22:56;0.50;;;0.50;;
13866;SDS011;7003;46.982;15.248;2023-12-20T06:25:25;1.00;;;0.90;;
13866;SDS011;7003;46.982;15.248;2023-12-20T06:27:53;2.20;;;0.50;;
13866;SDS011;7003;46.982;15.248;2023-12-20T06:30:24;0.73;;;0.73;;
13866;SDS011;7003;46.982;15.248;2023-12-20T06:32:56;1.33;;;1.07;;
13866;SDS011;7003;46.982;15.248;2023-12-20T06:35:24;0.90;;;0.90;;
13866;SDS011;7003;46.982;15.248;2023-12-20T06:37:52;1.43;;;1.33;;
13866;SDS011;7003;46.982;15.248;2023-12-20T06:40:23;1.30;;;1.20;;
13866;SDS011;7003;46.982;15.248;2023-12-20T06:42:56;0.30;;;0.30;;
13866;SDS011;7003;46.982;15.248;2023-12-20T06:45:25;0.53;;;0.53;;
13866;SDS011;7003;46.982;15.248;2023-12-20T06:47:57;3.07;;;1.20;;
13866;SDS011;7003;46.982;15.248;2023-12-20T06:50:25;1.57;;;1.47;;
13866;SDS011;7003;46.982;15.248;2023-12-20T06:52:53;1.70;;;1.60;;
13866;SDS011;7003;46.982;15.248;2023-12-20T06:55:25;1.77;;;0.93;;
13866;SDS011;7003;46.982;15.248;2023-12-20T06:57:53;1.00;;;0.90;;
13866;SDS011;7003;46.982;15.248;2023-12-20T07:00:22;0.37;;;0.30;;
13866;SDS011;7003;46.982;15.248;2023-12-20T07:02:50;1.00;;;0.80;;
13866;SDS011;7003;46.982;15.248;2023-12-20T07:05:21;0.80;;;0.80;;
13866;SDS011;7003;46.982;15.248;2023-12-20T07:07:52;1.37;;;1.27;;
13866;SDS011;7003;46.982;15.248;2023-12-20T07:10:22;1.50;;;0.63;;
13866;SDS011;7003;46.982;15.248;2023-12-20T07:12:51;0.77;;;0.70;;
13866;SDS011;7003;46.982;15.248;2023-12-20T07:15:23;0.80;;;0.70;;
13866;SDS011;7003;46.982;15.248;2023-12-20T07:17:59;4.30;;;1.27;;
13866;SDS011;7003;46.982;15.248;2023-12-20T07:20:29;1.27;;;0.57;;
13866;SDS011;7003;46.982;15.248;2023-12-20T07:22:57;0.97;;;0.93;;
13866;SDS011;7003;46.982;15.248;2023-12-20T07:25:28;0.53;;;0.53;;
13866;SDS011;7003;46.982;15.248;2023-12-20T07:27:58;1.70;;;1.17;;
13866;SDS011;7003;46.982;15.248;2023-12-20T07:30:26;1.73;;;1.00;;
13866;SDS011;7003;46.982;15.248;2023-12-20T07:32:54;1.17;;;1.03;;
13866;SDS011;7003;46.982;15.248;2023-12-20T07:35:24;3.50;;;1.00;;
13866;SDS011;7003;46.982;15.248;2023-12-20T07:37:55;0.57;;;0.57;;
13866;SDS011;7003;46.982;15.248;2023-12-20T07:40:26;0.70;;;0.70;;
13866;SDS011;7003;46.982;15.248;2023-12-20T07:42:54;0.90;;;0.80;;
13866;SDS011;7003;46.982;15.248;2023-12-20T07:45:24;1.73;;;1.03;;
13866;SDS011;7003;46.982;15.248;2023-12-20T07:47:52;0.63;;;0.63;;
13866;SDS011;7003;46.982;15.248;2023-12-20T07:50:20;0.93;;;0.93;;
13866;SDS011;7003;46.982;15.248;2023-12-20T07:52:50;1.27;;;1.17;;
13866;SDS011;7003;46.982;15.248;2023-12-20T07:55:24;1.87;;;1.47;;
13866;SDS011;7003;46.982;15.248;2023-12-20T07:57:52;1.57;;;1.30;;
13866;SDS011;7003;46.982;15.248;2023-12-20T08:00:21;2.23;;;1.73;;
13866;SDS011;7003;46.982;15.248;2023-12-20T08:02:50;4.47;;;1.80;;
13866;SDS011;7003;46.982;15.248;2023-12-20T08:05:19;2.83;;;1.80;;
13866;SDS011;7003;46.982;15.248;2023-12-20T08:07:49;1.63;;;1.47;;
13866;SDS011;7003;46.982;15.248;2023-12-20T08:10:22;2.47;;;1.47;;
13866;SDS011;7003;46.982;15.248;2023-12-20T08:12:50;1.13;;;1.13;;
13866;SDS011;7003;46.982;15.248;2023-12-20T08:15:23;1.50;;;1.40;;
13866;SDS011;7003;46.982;15.248;2023-12-20T08:17:51;0.73;;;0.73;;
13866;SDS011;7003;46.982;15.248;2023-12-20T08:20:20;1.97;;;1.70;;
13866;SDS011;7003;46.982;15.248;2023-12-20T08:22:48;2.40;;;1.87;;
13866;SDS011;7003;46.982;15.248;2023-12-20T08:25:18;0.70;;;0.70;;
13866;SDS011;7003;46.982;15.248;2023-12-20T08:27:51;1.40;;;1.23;;
13866;SDS011;7003;46.982;15.248;2023-12-20T08:30:20;0.63;;;0.63;;
13866;SDS011;7003;46.982;15.248;2023-12-20T08:32:48;3.80;;;1.17;;
13866;SDS011;7003;46.982;15.248;2023-12-20T08:35:19;0.80;;;0.77;;
13866;SDS011;7003;46.982;15.248;2023-12-20T08:37:49;0.80;;;0.80;;
13866;SDS011;7003;46.982;15.248;2023-12-20T08:40:17;1.40;;;1.27;;
13866;SDS011;7003;46.982;15.248;2023-12-20T08:42:47;2.23;;;1.57;;
13866;SDS011;7003;46.982;15.248;2023-12-20T08:45:18;0.87;;;0.87;;
13866;SDS011;7003;46.982;15.248;2023-12-20T08:47:48;11.37;;;2.27;;
13866;SDS011;7003;46.982;15.248;2023-12-20T08:50:16;1.20;;;1.03;;
13866;SDS011;7003;46.982;15.248;2023-12-20T08:52:44;1.17;;;0.90;;
13866;SDS011;7003;46.982;15.248;2023-12-20T08:55:13;5.17;;;1.57;;
13866;SDS011;7003;46.982;15.248;2023-12-20T08:57:42;1.77;;;1.67;;
13866;SDS011;7003;46.982;15.248;2023-12-20T09:00:13;3.43;;;1.90;;
13866;SDS011;7003;46.982;15.248;2023-12-20T09:02:42;3.03;;;1.60;;
13866;SDS011;7003;46.982;15.248;2023-12-20T09:05:11;2.10;;;1.80;;
13866;SDS011;7003;46.982;15.248;2023-12-20T09:07:39;2.97;;;1.93;;
13866;SDS011;7003;46.982;15.248;2023-12-20T09:10:12;3.40;;;2.10;;
13866;SDS011;7003;46.982;15.248;2023-12-20T09:12:40;2.63;;;1.83;;
13866;SDS011;7003;46.982;15.248;2023-12-20T09:15:18;1.90;;;1.47;;
13866;SDS011;7003;46.982;15.248;2023-12-20T09:17:46;3.87;;;2.50;;
13866;SDS011;7003;46.982;15.248;2023-12-20T09:20:14;1.53;;;1.20;;
13866;SDS011;7003;46.982;15.248;2023-12-20T09:22:42;1.23;;;0.90;;
13866;SDS011;7003;46.982;15.248;2023-12-20T09:25:10;3.00;;;2.30;;
13866;SDS011;7003;46.982;15.248;2023-12-20T09:27:41;8.90;;;2.67;;
13866;SDS011;7003;46.982;15.248;2023-12-20T09:30:12;3.67;;;3.33;;
13866;SDS011;7003;46.982;15.248;2023-12-20T09:32:42;6.23;;;2.53;;
13866;SDS011;7003;46.982;15.248;2023-12-20T09:35:11;3.87;;;2.37;;
13866;SDS011;7003;46.982;15.248;2023-12-20T09:37:41;4.07;;;1.97;;
13866;SDS011;7003;46.982;15.248;2023-12-20T09:40:11;5.67;;;3.27;;
13866;SDS011;7003;46.982;15.248;2023-12-20T09:42:43;2.97;;;1.87;;
13866;SDS011;7003;46.982;15.248;2023-12-20T09:45:19;4.67;;;2.60;;
13866;SDS011;7003;46.982;15.248;2023-12-20T09:47:51;1.33;;;1.23;;
13866;SDS011;7003;46.982;15.248;2023-12-20T09:50:23;5.10;;;4.00;;
13866;SDS011;7003;46.982;15.248;2023-12-20T09:52:55;4.07;;;3.23;;
13866;SDS011;7003;46.982;15.248;2023-12-20T09:55:25;10.03;;;5.30;;
13866;SDS011;7003;46.982;15.248;2023-12-20T09:57:55;6.27;;;5.67;;
13866;SDS011;7003;46.982;15.248;2023-12-20T10:00:27;8.50;;;5.80;;
13866;SDS011;7003;46.982;15.248;2023-12-20T10:02:57;10.63;;;6.10;;
13866;SDS011;7003;46.982;15.248;2023-12-20T10:05:30;6.37;;;4.17;;
13866;SDS011;7003;46.982;15.248;2023-12-20T10:07:59;10.63;;;4.70;;
13866;SDS011;7003;46.982;15.248;2023-12-20T10:10:30;4.90;;;4.03;;
13866;SDS011;7003;46.982;15.248;2023-12-20T10:13:02;11.47;;;6.33;;
13866;SDS011;7003;46.982;15.248;2023-12-20T10:15:32;10.47;;;5.47;;
13866;SDS011;7003;46.982;15.248;2023-12-20T10:18:05;7.17;;;4.20;;
13866;SDS011;7003;46.982;15.248;2023-12-20T10:20:40;7.43;;;4.97;;
13866;SDS011;7003;46.982;15.248;2023-12-20T10:23:09;6.37;;;4.27;;
13866;SDS011;7003;46.982;15.248;2023-12-20T10:25:38;7.50;;;4.37;;
13866;SDS011;7003;46.982;15.248;2023-12-20T10:28:13;4.83;;;3.50;;
13866;SDS011;7003;46.982;15.248;2023-12-20T10:30:45;8.57;;;4.47;;
13866;SDS011;7003;46.982;15.248;2023-12-20T10:33:21;7.60;;;5.40;;
13866;SDS011;7003;46.982;15.248;2023-12-20T10:35:55;4.60;;;4.03;;
13866;SDS011;7003;46.982;15.248;2023-12-20T10:38:23;6.20;;;3.97;;
13866;SDS011;7003;46.982;15.248;2023-12-20T10:40:52;4.07;;;3.73;;
13866;SDS011;7003;46.982;15.248;2023-12-20T10:43:24;6.20;;;4.53;;
13866;SDS011;7003;46.982;15.248;2023-12-20T10:45:56;6.30;;;3.67;;
13866;SDS011;7003;46.982;15.248;2023-12-20T10:48:26;7.70;;;4.43;;
13866;SDS011;7003;46.982;15.248;2023-12-20T10:50:55;4.43;;;4.03;;
13866;SDS011;7003;46.982;15.248;2023-12-20T10:53:33;4.60;;;3.30;;
13866;SDS011;7003;46.982;15.248;2023-12-20T10:56:04;5.73;;;3.80;;
13866;SDS011;7003;46.982;15.248;2023-12-20T10:58:35;4.73;;;3.73;;
13866;SDS011;7003;46.982;15.248;2023-12-20T11:01:09;3.63;;;3.10;;
13866;SDS011;7003;46.982;15.248;2023-12-20T11:03:44;7.70;;;4.17;;
13866;SDS011;7003;46.982;15.248;2023-12-20T11:06:20;5.70;;;3.40;;
13866;SDS011;7003;46.982;15.248;2023-12-20T11:09:03;3.90;;;3.57;;
13866;SDS011;7003;46.982;15.248;2023-12-20T11:11:40;4.57;;;4.17;;
13866;SDS011;7003;46.982;15.248;2023-12-20T11:14:22;4.37;;;3.67;;
13866;SDS011;7003;46.982;15.248;2023-12-20T11:17:05;5.13;;;4.63;;
13866;SDS011;7003;46.982;15.248;2023-12-20T11:19:39;6.17;;;3.63;;
13866;SDS011;7003;46.982;15.248;2023-12-20T11:22:32;5.20;;;4.50;;
13866;SDS011;7003;46.982;15.248;2023-12-20T11:25:05;5.83;;;5.23;;
13866;SDS011;7003;46.982;15.248;2023-12-20T11:27:36;5.77;;;3.80;;
13866;SDS011;7003;46.982;15.248;2023-12-20T11:30:11;5.37;;;4.37;;
13866;SDS011;7003;46.982;15.248;2023-12-20T11:32:42;5.87;;;5.27;;
13866;SDS011;7003;46.982;15.248;2023-12-20T11:35:19;8.90;;;5.10;;
13866;SDS011;7003;46.982;15.248;2023-12-20T11:37:52;7.80;;;4.07;;
13866;SDS011;7003;46.982;15.248;2023-12-20T11:40:20;4.50;;;3.63;;
13866;SDS011;7003;46.982;15.248;2023-12-20T11:42:56;4.30;;;3.80;;
13866;SDS011;7003;46.982;15.248;2023-12-20T11:45:24;6.90;;;4.43;;
13866;SDS011;7003;46.982;15.248;2023-12-20T11:47:53;7.67;;;5.20;;
13866;SDS011;7003;46.982;15.248;2023-12-20T11:50:24;9.67;;;6.07;;
13866;SDS011;7003;46.982;15.248;2023-12-20T11:52:52;8.10;;;5.63;;
13866;SDS011;7003;46.982;15.248;2023-12-20T11:55:28;8.00;;;4.80;;
13866;SDS011;7003;46.982;15.248;2023-12-20T11:57:59;6.20;;;5.13;;
13866;SDS011;7003;46.982;15.248;2023-12-20T12:00:27;6.23;;;4.40;;
13866;SDS011;7003;46.982;15.248;2023-12-20T12:02:58;6.30;;;4.60;;
13866;SDS011;7003;46.982;15.248;2023-12-20T12:05:32;14.43;;;5.73;;
13866;SDS011;7003;46.982;15.248;2023-12-20T12:08:03;4.77;;;4.20;;
13866;SDS011;7003;46.982;15.248;2023-12-20T12:10:31;6.83;;;5.10;;
13866;SDS011;7003;46.982;15.248;2023-12-20T12:12:59;7.17;;;4.67;;
13866;SDS011;7003;46.982;15.248;2023-12-20T12:15:31;4.23;;;3.83;;
13866;SDS011;7003;46.982;15.248;2023-12-20T12:18:01;8.03;;;3.57;;
13866;SDS011;7003;46.982;15.248;2023-12-20T12:20:34;5.20;;;3.33;;
13866;SDS011;7003;46.982;15.248;2023-12-20T12:23:03;5.80;;;3.43;;
13866;SDS011;7003;46.982;15.248;2023-12-20T12:25:38;5.73;;;4.23;;
13866;SDS011;7003;46.982;15.248;2023-12-20T12:28:07;8.80;;;5.87;;
13866;SDS011;7003;46.982;15.248;2023-12-20T12:30:35;9.73;;;7.53;;
13866;SDS011;7003;46.982;15.248;2023-12-20T12:33:06;9.20;;;7.70;;
13866;SDS011;7003;46.982;15.248;2023-12-20T12:35:35;10.20;;;6.40;;
13866;SDS011;7003;46.982;15.248;2023-12-20T12:38:03;8.83;;;6.10;;
13866;SDS011;7003;46.982;15.248;2023-12-20T12:40:34;9.20;;;6.73;;
13866;SDS011;7003;46.982;15.248;2023-12-20T12:43:03;18.60;;;6.90;;
13866;SDS011;7003;46.982;15.248;2023-12-20T12:45:32;8.47;;;5.50;;
13866;SDS011;7003;46.982;15.248;2023-12-20T12:48:03;9.30;;;6.50;;
13866;SDS011;7003;46.982;15.248;2023-12-20T12:50:32;9.70;;;6.07;;
13866;SDS011;7003;46.982;15.248;2023-12-20T12:53:03;7.43;;;4.87;;
13866;SDS011;7003;46.982;15.248;2023-12-20T12:55:34;7.57;;;6.13;;
13866;SDS011;7003;46.982;15.248;2023-12-20T12:58:04;8.40;;;5.27;;
13866;SDS011;7003;46.982;15.248;2023-12-20T13:00:35;8.90;;;5.47;;
13866;SDS011;7003;46.982;15.248;2023-12-20T13:03:06;9.60;;;6.50;;
13866;SDS011;7003;46.982;15.248;2023-12-20T13:05:34;6.57;;;4.17;;
13866;SDS011;7003;46.982;15.248;2023-12-20T13:08:04;6.83;;;4.87;;
13866;SDS011;7003;46.982;15.248;2023-12-20T13:10:33;6.97;;;4.67;;
13866;SDS011;7003;46.982;15.248;2023-12-20T13:13:02;6.07;;;4.40;;
13866;SDS011;7003;46.982;15.248;2023-12-20T13:15:31;7.03;;;4.90;;
13866;SDS011;7003;46.982;15.248;2023-12-20T13:17:59;15.03;;;4.53;;
13866;SDS011;7003;46.982;15.248;2023-12-20T13:20:31;9.57;;;4.87;;
13866;SDS011;7003;46.982;15.248;2023-12-20T13:22:59;7.27;;;5.87;;
13866;SDS011;7003;46.982;15.248;2023-12-20T13:25:41;12.60;;;6.90;;
13866;SDS011;7003;46.982;15.248;2023-12-20T13:28:10;14.83;;;10.17;;
13866;SDS011;7003;46.982;15.248;2023-12-20T13:30:38;9.93;;;7.83;;
13866;SDS011;7003;46.982;15.248;2023-12-20T13:33:09;15.13;;;7.30;;
13866;SDS011;7003;46.982;15.248;2023-12-20T13:35:39;6.57;;;4.80;;
13866;SDS011;7003;46.982;15.248;2023-12-20T13:38:07;6.93;;;4.37;;
13866;SDS011;7003;46.982;15.248;2023-12-20T13:40:38;16.70;;;8.93;;
13866;SDS011;7003;46.982;15.248;2023-12-20T13:43:08;15.10;;;8.83;;
13866;SDS011;7003;46.982;15.248;2023-12-20T13:45:37;9.33;;;6.50;;
13866;SDS011;7003;46.982;15.248;2023-12-20T13:48:09;10.93;;;6.37;;
13866;SDS011;7003;46.982;15.248;2023-12-20T13:50:40;13.77;;;7.77;;
13866;SDS011;7003;46.982;15.248;2023-12-20T13:53:08;13.33;;;11.00;;
13866;SDS011;7003;46.982;15.248;2023-12-20T13:55:36;9.93;;;6.77;;
13866;SDS011;7003;46.982;15.248;2023-12-20T13:58:05;10.03;;;5.23;;
13866;SDS011;7003;46.982;15.248;2023-12-20T14:00:37;12.93;;;5.30;;
13866;SDS011;7003;46.982;15.248;2023-12-20T14:03:07;18.77;;;6.77;;
13866;SDS011;7003;46.982;15.248;2023-12-20T14:05:35;11.70;;;6.40;;
13866;SDS011;7003;46.982;15.248;2023-12-20T14:08:04;9.83;;;6.57;;
13866;SDS011;7003;46.982;15.248;2023-12-20T14:10:32;7.63;;;4.27;;
13866;SDS011;7003;46.982;15.248;2023-12-20T14:13:03;7.27;;;4.03;;
13866;SDS011;7003;46.982;15.248;2023-12-20T14:15:33;7.63;;;4.77;;
13866;SDS011;7003;46.982;15.248;2023-12-20T14:18:03;8.70;;;6.40;;
13866;SDS011;7003;46.982;15.248;2023-12-20T14:20:33;8.00;;;5.17;;
13866;SDS011;7003;46.982;15.248;2023-12-20T14:23:05;7.93;;;5.63;;
13866;SDS011;7003;46.982;15.248;2023-12-20T14:25:35;6.43;;;5.53;;
13866;SDS011;7003;46.982;15.248;2023-12-20T14:28:04;11.33;;;7.10;;
13866;SDS011;7003;46.982;15.248;2023-12-20T14:30:34;9.83;;;7.10;;
13866;SDS011;7003;46.982;15.248;2023-12-20T14:33:05;8.30;;;5.27;;
13866;SDS011;7003;46.982;15.248;2023-12-20T14:35:33;12.47;;;7.63;;
13866;SDS011;7003;46.982;15.248;2023-12-20T14:38:01;9.47;;;6.50;;
13866;SDS011;7003;46.982;15.248;2023-12-20T14:40:30;6.30;;;5.20;;
13866;SDS011;7003;46.982;15.248;2023-12-20T14:42:58;10.87;;;6.57;;
13866;SDS011;7003;46.982;15.248;2023-12-20T14:45:29;7.23;;;5.10;;
13866;SDS011;7003;46.982;15.248;2023-12-20T14:47:59;7.50;;;5.63;;
13866;SDS011;7003;46.982;15.248;2023-12-20T14:50:28;10.77;;;5.90;;
13866;SDS011;7003;46.982;15.248;2023-12-20T14:52:58;5.57;;;4.60;;
13866;SDS011;7003;46.982;15.248;2023-12-20T14:55:35;6.20;;;4.57;;
13866;SDS011;7003;46.982;15.248;2023-12-20T14:58:05;10.17;;;6.27;;
13866;SDS011;7003;46.982;15.248;2023-12-20T15:00:33;11.10;;;4.93;;
13866;SDS011;7003;46.982;15.248;2023-12-20T15:03:02;8.00;;;5.33;;